createdAt,value
2017-07-12T00:01:35.195Z,8.13
2017-07-12T00:04:01.388Z,7.90
2017-07-12T00:06:27.581Z,7.43
2017-07-12T00:08:53.756Z,8.07
2017-07-12T00:11:19.953Z,7.40
2017-07-12T00:13:46.152Z,7.57
2017-07-12T00:16:12.350Z,7.83
2017-07-12T00:18:38.571Z,8.63
2017-07-12T00:21:04.729Z,7.93
2017-07-12T00:23:30.911Z,7.93
2017-07-12T00:25:57.097Z,8.10
2017-07-12T00:28:23.312Z,9.20
2017-07-12T00:30:49.580Z,8.03
2017-07-12T00:33:15.789Z,7.20
2017-07-12T00:35:42.011Z,7.60
2017-07-12T00:38:08.224Z,8.03
2017-07-12T00:40:34.420Z,7.07
2017-07-12T00:43:00.647Z,6.93
2017-07-12T00:45:26.818Z,7.80
2017-07-12T00:47:53.016Z,7.00
2017-07-12T00:50:19.232Z,7.40
2017-07-12T00:52:45.421Z,7.33
2017-07-12T00:55:11.618Z,7.10
2017-07-12T00:57:37.816Z,7.33
2017-07-12T01:00:04.053Z,7.17
2017-07-12T01:02:30.230Z,6.80
2017-07-12T01:04:56.460Z,7.00
2017-07-12T01:07:22.636Z,6.50
2017-07-12T01:09:48.839Z,7.47
2017-07-12T01:12:15.034Z,6.33
2017-07-12T01:14:41.243Z,7.57
2017-07-12T01:17:07.441Z,6.43
2017-07-12T01:19:33.624Z,7.60
2017-07-12T01:21:59.796Z,6.60
2017-07-12T01:24:25.984Z,7.20
2017-07-12T01:26:52.188Z,6.70
2017-07-12T01:29:18.397Z,7.60
2017-07-12T01:31:44.608Z,7.00
2017-07-12T01:34:10.797Z,6.53
2017-07-12T01:36:36.985Z,7.07
2017-07-12T01:39:03.155Z,7.20
2017-07-12T01:41:29.330Z,6.77
2017-07-12T01:43:55.529Z,7.40
2017-07-12T01:46:21.767Z,6.83
2017-07-12T01:48:47.924Z,7.73
2017-07-12T01:51:14.125Z,8.23
2017-07-12T01:53:40.302Z,8.20
2017-07-12T01:56:06.480Z,6.43
2017-07-12T01:58:32.647Z,6.17
2017-07-12T02:00:58.833Z,6.73
2017-07-12T02:03:25.008Z,7.23
2017-07-12T02:05:51.182Z,8.17
2017-07-12T02:08:17.393Z,10.00
2017-07-12T02:10:43.546Z,12.70
2017-07-12T02:13:09.780Z,13.03
2017-07-12T02:15:36.068Z,13.60
2017-07-12T02:18:02.303Z,14.37
2017-07-12T02:20:28.450Z,13.53
2017-07-12T02:22:54.673Z,13.00
2017-07-12T02:25:20.833Z,13.00
2017-07-12T02:27:47.009Z,13.00
2017-07-12T02:30:13.190Z,14.00
2017-07-12T02:32:39.391Z,13.97
2017-07-12T02:35:05.561Z,12.80
2017-07-12T02:37:31.761Z,13.13
2017-07-12T02:39:57.971Z,14.00
2017-07-12T02:42:24.147Z,13.90
2017-07-12T02:44:50.351Z,12.63
2017-07-12T02:47:16.529Z,13.20
2017-07-12T02:49:42.744Z,14.10
2017-07-12T02:52:08.896Z,12.67
2017-07-12T02:54:35.072Z,13.93
2017-07-12T02:57:01.266Z,13.50
2017-07-12T02:59:27.460Z,14.73
2017-07-12T03:01:53.628Z,12.40
2017-07-12T03:04:19.796Z,12.97
2017-07-12T03:06:45.968Z,13.37
2017-07-12T03:09:12.196Z,12.67
2017-07-12T03:11:38.364Z,11.20
2017-07-12T03:14:04.539Z,10.37
2017-07-12T03:16:30.785Z,11.80
2017-07-12T03:18:56.974Z,11.30
2017-07-12T03:21:33.169Z,10.50
2017-07-12T03:23:59.335Z,11.50
2017-07-12T03:26:25.559Z,12.10
2017-07-12T03:28:51.730Z,9.33
2017-07-12T03:31:17.928Z,8.13
2017-07-12T03:33:44.085Z,9.53
2017-07-12T03:36:10.308Z,9.77
2017-07-12T03:38:36.452Z,9.43
2017-07-12T03:41:02.638Z,10.67
2017-07-12T03:43:28.816Z,11.20
2017-07-12T03:45:55.013Z,10.80
2017-07-12T03:48:21.177Z,8.83
2017-07-12T03:50:47.363Z,10.03
2017-07-12T03:53:13.576Z,8.70
2017-07-12T03:55:39.735Z,8.90
2017-07-12T03:58:05.946Z,8.87
2017-07-12T04:00:32.102Z,9.90
2017-07-12T04:02:58.297Z,9.20
2017-07-12T04:05:24.456Z,8.00
2017-07-12T04:07:50.643Z,8.00
2017-07-12T04:10:16.882Z,8.33
2017-07-12T04:12:43.082Z,7.83
2017-07-12T04:15:09.249Z,7.03
2017-07-12T04:17:35.420Z,8.20
2017-07-12T04:20:01.579Z,7.37
2017-07-12T04:22:27.746Z,8.53
2017-07-12T04:24:53.933Z,7.20
2017-07-12T04:27:20.136Z,7.77
2017-07-12T04:29:46.342Z,8.40
2017-07-12T04:32:12.517Z,7.90
2017-07-12T04:34:38.717Z,6.73
2017-07-12T04:37:04.903Z,7.83
2017-07-12T04:39:31.105Z,7.23
2017-07-12T04:41:57.271Z,7.67
2017-07-12T04:44:23.439Z,7.87
2017-07-12T04:46:49.615Z,7.47
2017-07-12T04:49:15.810Z,8.13
2017-07-12T04:51:41.973Z,7.37
2017-07-12T04:54:08.204Z,8.53
2017-07-12T04:56:34.366Z,7.80
2017-07-12T04:59:00.573Z,6.93
2017-07-12T05:01:26.762Z,6.23
2017-07-12T05:03:52.949Z,7.57
2017-07-12T05:06:19.118Z,7.63
2017-07-12T05:08:45.319Z,6.90
2017-07-12T05:11:11.496Z,6.40
2017-07-12T05:13:37.728Z,7.40
2017-07-12T05:16:03.997Z,8.03
2017-07-12T05:18:30.241Z,7.40
2017-07-12T05:20:56.444Z,8.30
2017-07-12T05:23:22.608Z,8.23
2017-07-12T05:25:48.855Z,7.13
2017-07-12T05:28:15.061Z,7.87
2017-07-12T05:30:41.312Z,7.90
2017-07-12T05:33:07.503Z,7.20
2017-07-12T05:35:33.716Z,7.10
2017-07-12T05:38:00.203Z,7.67
2017-07-12T05:40:26.356Z,8.00
2017-07-12T05:42:52.504Z,8.47
2017-07-12T05:45:18.730Z,6.67
2017-07-12T05:47:44.898Z,7.37
2017-07-12T05:50:11.096Z,7.57
2017-07-12T05:52:37.270Z,7.67
2017-07-12T05:55:03.443Z,7.47
2017-07-12T05:57:29.620Z,7.83
2017-07-12T05:59:55.798Z,6.20
2017-07-12T06:02:21.995Z,6.30
2017-07-12T06:04:48.147Z,6.30
2017-07-12T06:07:14.342Z,7.30
2017-07-12T06:09:40.532Z,7.63
2017-07-12T06:12:06.708Z,6.17
2017-07-12T06:14:32.877Z,6.40
2017-07-12T06:16:59.120Z,6.30
2017-07-12T06:19:25.276Z,5.97
2017-07-12T06:21:51.445Z,5.97
2017-07-12T06:24:17.584Z,5.53
2017-07-12T06:26:43.789Z,4.90
2017-07-12T06:29:10.005Z,4.77
2017-07-12T06:31:36.138Z,4.70
2017-07-12T06:34:02.347Z,4.20
2017-07-12T06:36:28.514Z,4.60
2017-07-12T06:38:54.665Z,4.60
2017-07-12T06:41:20.838Z,4.20
2017-07-12T06:43:47.033Z,4.37
2017-07-12T06:46:13.189Z,5.03
2017-07-12T06:48:39.347Z,4.57
2017-07-12T06:51:05.601Z,4.43
2017-07-12T06:53:31.811Z,4.67
2017-07-12T06:55:58.002Z,4.60
2017-07-12T06:58:24.224Z,4.40
2017-07-12T07:00:50.449Z,4.97
2017-07-12T07:03:16.634Z,4.90
2017-07-12T07:05:42.841Z,5.30
2017-07-12T07:08:08.987Z,5.30
2017-07-12T07:10:35.184Z,5.30
2017-07-12T07:13:01.356Z,5.17
2017-07-12T07:15:27.523Z,5.73
2017-07-12T07:17:53.679Z,7.47
2017-07-12T07:20:19.892Z,5.80
2017-07-12T07:22:46.027Z,5.67
2017-07-12T07:25:12.153Z,6.10
2017-07-12T07:27:38.399Z,6.07
2017-07-12T07:30:04.559Z,5.40
2017-07-12T07:32:30.745Z,5.27
2017-07-12T07:34:56.899Z,5.10
2017-07-12T07:37:23.113Z,5.53
2017-07-12T07:39:49.294Z,5.57
2017-07-12T07:42:15.508Z,6.37
2017-07-12T07:44:41.664Z,6.23
2017-07-12T07:47:07.829Z,6.03
2017-07-12T07:49:33.977Z,6.73
2017-07-12T07:52:00.246Z,6.00
2017-07-12T07:54:26.403Z,6.70
2017-07-12T07:56:52.567Z,7.30
2017-07-12T07:59:18.754Z,7.50
2017-07-12T08:01:44.935Z,7.40
2017-07-12T08:04:11.104Z,8.37
2017-07-12T08:06:37.252Z,6.27
2017-07-12T08:09:03.470Z,6.63
2017-07-12T08:11:29.621Z,8.20
2017-07-12T08:13:55.792Z,6.83
2017-07-12T08:16:21.977Z,6.20
2017-07-12T08:18:48.154Z,6.03
2017-07-12T08:21:14.300Z,5.37
2017-07-12T08:23:40.492Z,5.73
2017-07-12T08:26:06.644Z,6.30
2017-07-12T08:28:32.841Z,6.33
2017-07-12T08:30:59.029Z,6.20
2017-07-12T08:33:25.220Z,6.43
2017-07-12T08:35:51.447Z,6.93
2017-07-12T08:38:17.595Z,7.90
2017-07-12T08:40:43.782Z,6.87
2017-07-12T08:43:09.934Z,6.53
2017-07-12T08:45:36.452Z,6.33
2017-07-12T08:48:02.603Z,6.93
2017-07-12T08:50:28.833Z,5.97
2017-07-12T08:52:54.999Z,5.60
2017-07-12T08:55:21.168Z,7.20
2017-07-12T08:57:47.320Z,6.23
2017-07-12T09:00:13.487Z,6.20
2017-07-12T09:02:39.651Z,7.60
2017-07-12T09:05:05.847Z,5.77
2017-07-12T09:07:32.029Z,7.30
2017-07-12T09:09:58.207Z,6.20
2017-07-12T09:12:24.429Z,5.80
2017-07-12T09:14:50.599Z,6.57
2017-07-12T09:17:16.800Z,6.87
2017-07-12T09:19:42.976Z,5.80
2017-07-12T09:22:09.134Z,6.13
2017-07-12T09:34:19.705Z,6.30
2017-07-12T09:36:45.874Z,6.53
2017-07-12T09:39:12.045Z,6.40
2017-07-12T09:41:38.223Z,6.47
2017-07-12T09:44:04.413Z,5.70
2017-07-12T09:46:30.563Z,5.90
2017-07-12T09:48:56.732Z,5.50
2017-07-12T09:51:22.920Z,5.90
2017-07-12T09:53:49.120Z,6.20
2017-07-12T09:56:15.273Z,6.20
2017-07-12T09:58:41.452Z,6.00
2017-07-12T10:01:07.655Z,6.50
2017-07-12T10:03:33.831Z,6.33
2017-07-12T10:05:59.997Z,5.80
2017-07-12T10:08:26.151Z,5.50
2017-07-12T10:10:52.379Z,6.43
2017-07-12T10:13:18.558Z,6.50
2017-07-12T10:15:44.765Z,6.77
2017-07-12T10:18:10.928Z,7.57
2017-07-12T10:20:37.141Z,7.60
2017-07-12T10:23:03.321Z,7.37
2017-07-12T10:25:29.493Z,7.13
2017-07-12T10:27:55.929Z,6.40
2017-07-12T10:30:22.140Z,7.57
2017-07-12T10:32:48.319Z,6.90
2017-07-12T10:35:14.527Z,7.40
2017-07-12T10:37:40.735Z,6.60
2017-07-12T10:40:06.909Z,7.00
2017-07-12T10:42:33.083Z,7.20
2017-07-12T10:44:59.260Z,8.47
2017-07-12T10:47:25.432Z,7.20
2017-07-12T10:49:51.580Z,6.83
2017-07-12T10:52:17.809Z,8.33
2017-07-12T10:54:43.997Z,6.83
2017-07-12T10:57:10.199Z,8.10
2017-07-12T10:59:36.385Z,6.83
2017-07-12T11:02:02.591Z,7.17
2017-07-12T11:04:28.817Z,7.30
2017-07-12T11:06:55.004Z,7.40
2017-07-12T11:09:21.171Z,7.80
2017-07-12T11:11:47.355Z,7.97
2017-07-12T11:14:13.577Z,8.10
2017-07-12T11:16:39.815Z,8.17
2017-07-12T11:19:05.991Z,7.70
2017-07-12T11:21:32.132Z,9.37
2017-07-12T11:23:58.284Z,8.00
2017-07-12T11:26:24.420Z,8.13
2017-07-12T11:28:50.619Z,8.07
2017-07-12T11:31:16.779Z,7.80
2017-07-12T11:33:42.979Z,7.80
2017-07-12T11:36:09.148Z,9.17
2017-07-12T11:38:35.336Z,8.50
2017-07-12T11:41:01.522Z,5.57
2017-07-12T11:43:27.691Z,3.90
2017-07-12T11:45:53.861Z,3.93
2017-07-12T11:48:20.064Z,4.10
2017-07-12T11:50:46.389Z,3.93
2017-07-12T11:53:12.564Z,4.00
2017-07-12T11:55:38.791Z,3.93
2017-07-12T11:58:04.988Z,3.87
2017-07-12T12:00:31.150Z,4.03
2017-07-12T12:02:57.321Z,3.47
2017-07-12T12:05:23.497Z,3.47
2017-07-12T12:07:49.663Z,3.30
2017-07-12T12:10:15.864Z,3.07
2017-07-12T12:12:42.043Z,2.70
2017-07-12T12:15:08.230Z,3.60
2017-07-12T12:17:34.384Z,2.40
2017-07-12T12:20:00.567Z,2.50
2017-07-12T12:22:26.754Z,3.17
2017-07-12T12:24:52.944Z,2.67
2017-07-12T12:27:19.110Z,2.60
2017-07-12T12:29:45.304Z,2.70
2017-07-12T12:32:11.454Z,2.67
2017-07-12T12:34:37.628Z,2.33
2017-07-12T12:37:03.864Z,2.80
2017-07-12T12:39:30.081Z,2.97
2017-07-12T12:41:56.242Z,3.10
2017-07-12T12:44:22.384Z,2.97
2017-07-12T12:46:48.645Z,2.63
2017-07-12T12:49:14.871Z,2.83
2017-07-12T12:51:41.078Z,2.90
2017-07-12T12:54:07.279Z,2.87
2017-07-12T12:56:33.482Z,3.17
2017-07-12T12:58:59.698Z,2.50
2017-07-12T13:01:25.876Z,2.60
2017-07-12T13:03:52.040Z,2.40
2017-07-12T13:06:18.250Z,2.77
2017-07-12T13:08:44.397Z,2.90
2017-07-12T13:11:10.529Z,2.50
2017-07-12T13:13:36.712Z,2.87
2017-07-12T13:16:02.864Z,2.97
2017-07-12T13:18:29.051Z,2.13
2017-07-12T13:20:55.225Z,2.43
2017-07-12T13:23:21.404Z,2.10
2017-07-12T13:25:47.556Z,2.00
2017-07-12T13:28:13.750Z,2.23
2017-07-12T13:30:39.918Z,2.10
2017-07-12T13:33:06.121Z,2.20
2017-07-12T13:35:32.284Z,2.07
2017-07-12T13:37:58.503Z,2.43
2017-07-12T13:40:25.688Z,2.10
2017-07-12T13:42:51.898Z,2.17
2017-07-12T13:45:19.067Z,1.93
2017-07-12T13:47:45.266Z,2.40
2017-07-12T13:50:11.450Z,2.10
2017-07-12T13:52:37.634Z,2.50
2017-07-12T13:55:03.816Z,2.03
2017-07-12T13:57:29.989Z,2.07
2017-07-12T13:59:56.191Z,2.00
2017-07-12T14:02:22.361Z,1.90
2017-07-12T14:04:49.553Z,2.30
2017-07-12T14:07:15.716Z,1.90
2017-07-12T14:09:41.891Z,1.30
2017-07-12T14:12:08.140Z,1.60
2017-07-12T14:14:36.305Z,1.77
2017-07-12T14:17:02.509Z,1.33
2017-07-12T14:19:28.732Z,1.20
2017-07-12T14:21:54.948Z,1.60
2017-07-12T14:24:22.099Z,1.10
2017-07-12T14:26:48.284Z,1.47
2017-07-12T14:29:14.484Z,1.60
2017-07-12T14:31:40.672Z,1.37
2017-07-12T14:34:06.891Z,1.30
2017-07-12T14:36:33.119Z,1.23
2017-07-12T14:38:59.285Z,1.60
2017-07-12T14:41:25.451Z,1.67
2017-07-12T14:43:51.623Z,1.20
2017-07-12T14:46:17.836Z,1.30
2017-07-12T14:48:44.058Z,1.50
2017-07-12T14:51:10.220Z,1.60
2017-07-12T14:53:36.430Z,1.77
2017-07-12T14:56:02.604Z,1.70
2017-07-12T14:58:28.769Z,1.60
2017-07-12T15:00:54.900Z,1.60
2017-07-12T15:03:21.135Z,1.53
2017-07-12T15:05:48.277Z,1.30
2017-07-12T15:08:14.463Z,1.60
2017-07-12T15:10:40.606Z,1.50
2017-07-12T15:13:06.871Z,1.60
2017-07-12T15:15:34.063Z,1.70
2017-07-12T15:18:00.219Z,2.17
2017-07-12T15:20:26.390Z,1.57
2017-07-12T15:22:52.593Z,1.20
2017-07-12T15:25:18.785Z,5.37
2017-07-12T15:27:44.941Z,2.47
2017-07-12T15:30:11.103Z,6.00
2017-07-12T15:32:37.349Z,1.50
2017-07-12T15:35:03.531Z,1.40
2017-07-12T15:37:29.744Z,1.40
2017-07-12T15:39:55.937Z,1.03
2017-07-12T15:42:22.134Z,0.93
2017-07-12T15:44:48.418Z,1.33
2017-07-12T15:47:14.632Z,1.10
2017-07-12T15:49:40.919Z,1.00
2017-07-12T15:52:08.189Z,1.57
2017-07-12T15:54:34.399Z,1.43
2017-07-12T15:57:00.923Z,1.23
2017-07-12T15:59:28.244Z,1.40
2017-07-12T16:01:54.456Z,1.80
2017-07-12T16:04:21.648Z,1.20
2017-07-12T16:06:47.837Z,1.40
2017-07-12T16:09:14.017Z,1.50
2017-07-12T16:11:40.307Z,1.30
2017-07-12T16:14:07.666Z,1.50
2017-07-12T16:16:33.860Z,1.47
2017-07-12T16:19:00.012Z,1.10
2017-07-12T16:21:26.237Z,1.00
2017-07-12T16:23:52.534Z,1.30
2017-07-12T16:26:18.709Z,1.40
2017-07-12T16:28:44.913Z,1.10
2017-07-12T16:31:11.086Z,1.50
2017-07-12T16:33:37.265Z,1.33
2017-07-12T16:36:04.432Z,1.60
2017-07-12T16:38:30.648Z,1.40
2017-07-12T16:40:56.820Z,1.20
2017-07-12T16:43:22.984Z,3.53
2017-07-12T16:45:49.171Z,5.23
2017-07-12T16:48:15.466Z,21.93
2017-07-12T16:50:41.652Z,2.60
2017-07-12T16:53:07.848Z,6.80
2017-07-12T16:55:34.029Z,10.90
2017-07-12T16:58:00.530Z,5.17
2017-07-12T17:00:26.758Z,2.57
2017-07-12T17:02:53.929Z,7.57
2017-07-12T17:05:20.204Z,2.37
2017-07-12T17:07:46.356Z,5.03
2017-07-12T17:10:12.537Z,2.90
2017-07-12T17:12:38.716Z,2.10
2017-07-12T17:15:04.933Z,2.93
2017-07-12T17:17:31.104Z,2.00
2017-07-12T17:19:57.315Z,2.40
2017-07-12T17:22:23.487Z,3.43
2017-07-12T17:24:49.738Z,3.73
2017-07-12T17:27:15.906Z,3.23
2017-07-12T17:29:42.096Z,2.00
2017-07-12T17:32:08.340Z,3.60
2017-07-12T17:34:34.499Z,1.73
2017-07-12T17:37:00.737Z,2.70
2017-07-12T17:39:26.973Z,4.97
2017-07-12T17:41:56.640Z,4.23
2017-07-12T17:44:22.798Z,3.17
2017-07-12T17:46:49.023Z,5.30
2017-07-12T17:49:15.173Z,3.07
2017-07-12T17:51:41.420Z,6.70
2017-07-12T17:54:07.593Z,3.50
2017-07-12T17:56:33.777Z,5.20
2017-07-12T17:58:59.931Z,4.97
2017-07-12T18:01:26.100Z,2.67
2017-07-12T18:03:52.267Z,1.93
2017-07-12T18:06:18.528Z,2.20
2017-07-12T18:08:44.748Z,1.90
2017-07-12T18:11:10.943Z,1.90
2017-07-12T18:13:37.132Z,2.00
2017-07-12T18:16:03.328Z,2.00
2017-07-12T18:18:29.631Z,1.97
2017-07-12T18:20:55.792Z,2.20
2017-07-12T18:23:21.995Z,1.80
2017-07-12T18:25:48.160Z,1.77
2017-07-12T18:28:14.385Z,1.80
2017-07-12T18:30:40.550Z,2.27
2017-07-12T18:33:07.583Z,1.97
2017-07-12T18:35:33.735Z,1.90
2017-07-12T18:37:59.958Z,1.97
2017-07-12T18:40:26.155Z,2.20
2017-07-12T18:42:52.385Z,2.03
2017-07-12T18:45:18.559Z,2.30
2017-07-12T18:47:44.744Z,2.33
2017-07-12T18:50:10.902Z,3.87
2017-07-12T18:52:37.101Z,3.53
2017-07-12T18:55:03.242Z,4.57
2017-07-12T18:57:30.411Z,7.27
2017-07-12T18:59:56.563Z,18.53
2017-07-12T19:02:22.755Z,14.90
2017-07-12T19:04:48.907Z,11.50
2017-07-12T19:07:15.053Z,12.07
2017-07-12T19:09:41.248Z,20.10
2017-07-12T19:12:07.480Z,7.63
2017-07-12T19:14:33.660Z,6.77
2017-07-12T19:16:59.863Z,21.00
2017-07-12T19:19:27.061Z,9.00
2017-07-12T19:21:53.215Z,13.93
2017-07-12T19:24:19.376Z,5.67
2017-07-12T19:26:46.284Z,9.67
2017-07-12T19:29:12.459Z,3.93
2017-07-12T19:31:38.598Z,5.60
2017-07-12T19:34:04.765Z,4.03
2017-07-12T19:36:30.928Z,5.30
2017-07-12T19:38:57.092Z,4.53
2017-07-12T19:41:23.297Z,4.07
2017-07-12T19:43:49.494Z,4.33
2017-07-12T19:46:15.703Z,4.00
2017-07-12T19:48:41.874Z,4.07
2017-07-12T19:51:08.056Z,3.70
2017-07-12T19:53:34.302Z,4.40
2017-07-12T19:56:00.483Z,3.90
2017-07-12T19:58:26.664Z,3.50
2017-07-12T20:00:52.860Z,3.37
2017-07-12T20:03:19.010Z,12.73
2017-07-12T20:05:45.193Z,3.90
2017-07-12T20:08:11.331Z,4.13
2017-07-12T20:10:37.485Z,4.30
2017-07-12T20:13:03.660Z,5.27
2017-07-12T20:15:29.811Z,5.17
2017-07-12T20:17:56.041Z,5.47
2017-07-12T20:20:22.197Z,4.30
2017-07-12T20:22:48.363Z,6.10
2017-07-12T20:25:14.569Z,4.60
2017-07-12T20:27:40.691Z,4.60
2017-07-12T20:30:06.888Z,3.93
2017-07-12T20:32:33.063Z,4.50
2017-07-12T20:34:59.199Z,4.13
2017-07-12T20:37:25.375Z,5.80
2017-07-12T20:39:51.512Z,4.93
2017-07-12T20:42:17.688Z,6.50
2017-07-12T20:44:43.829Z,9.90
2017-07-12T20:47:09.973Z,7.50
2017-07-12T20:49:36.116Z,9.60
2017-07-12T20:52:03.286Z,9.10
2017-07-12T20:54:29.452Z,9.37
2017-07-12T20:56:55.591Z,5.87
2017-07-12T20:59:21.751Z,4.40
2017-07-12T21:01:47.911Z,10.67
2017-07-12T21:04:14.116Z,3.27
2017-07-12T21:06:40.300Z,2.23
2017-07-12T21:09:06.525Z,2.30
2017-07-12T21:11:33.598Z,1.77
2017-07-12T21:13:59.794Z,2.17
2017-07-12T21:16:25.988Z,2.20
2017-07-12T21:18:52.219Z,2.50
2017-07-12T21:21:18.531Z,2.40
2017-07-12T21:23:44.808Z,2.50
2017-07-12T21:26:11.032Z,2.13
2017-07-12T21:28:37.216Z,2.93
2017-07-12T21:31:03.423Z,2.57
2017-07-12T21:33:29.593Z,2.20
2017-07-12T21:35:55.835Z,2.20
2017-07-12T21:38:22.064Z,2.00
2017-07-12T21:40:48.249Z,2.60
2017-07-12T21:43:14.464Z,2.17
2017-07-12T21:45:40.779Z,2.40
2017-07-12T21:48:06.975Z,2.50
2017-07-12T21:50:33.219Z,2.87
2017-07-12T21:52:59.415Z,2.63
2017-07-12T21:55:43.838Z,3.27
2017-07-12T21:58:28.455Z,3.10
2017-07-12T22:01:12.999Z,2.50
2017-07-12T22:03:57.656Z,3.10
2017-07-12T22:06:42.179Z,3.17
2017-07-12T22:09:26.736Z,3.40
2017-07-12T22:12:11.292Z,3.20
2017-07-12T22:14:55.869Z,4.07
2017-07-12T22:17:40.452Z,3.40
2017-07-12T22:20:24.973Z,3.50
2017-07-12T22:23:09.499Z,2.80
2017-07-12T22:25:54.040Z,3.03
2017-07-12T22:28:38.600Z,2.53
2017-07-12T22:31:23.278Z,2.60
2017-07-12T22:34:07.667Z,3.40
2017-07-12T22:36:52.293Z,3.37
2017-07-12T22:39:24.579Z,2.87
2017-07-12T22:41:56.881Z,3.00
2017-07-12T22:44:23.017Z,2.83
2017-07-12T22:46:49.365Z,4.00
2017-07-12T22:49:16.666Z,3.10
2017-07-12T22:51:43.005Z,3.30
2017-07-12T22:54:09.368Z,3.60
2017-07-12T22:56:35.692Z,3.23
2017-07-12T22:59:01.991Z,3.53
2017-07-12T23:01:28.210Z,3.77
2017-07-12T23:03:56.831Z,3.57
2017-07-12T23:06:23.122Z,4.10
2017-07-12T23:08:49.376Z,4.10
2017-07-12T23:11:15.561Z,3.60
2017-07-12T23:13:41.857Z,3.30
2017-07-12T23:16:08.081Z,3.50
2017-07-12T23:18:34.288Z,4.50
2017-07-12T23:21:00.461Z,4.20
2017-07-12T23:23:26.687Z,5.73
2017-07-12T23:25:52.884Z,4.30
2017-07-12T23:28:19.221Z,5.17
2017-07-12T23:30:45.429Z,4.47
2017-07-12T23:33:11.770Z,5.00
2017-07-12T23:35:38.141Z,3.87
2017-07-12T23:38:04.350Z,5.50
2017-07-12T23:40:30.577Z,4.83
2017-07-12T23:42:56.784Z,6.33
2017-07-12T23:45:23.037Z,5.93
2017-07-12T23:47:49.256Z,5.00
2017-07-12T23:50:15.492Z,5.00
2017-07-12T23:52:41.709Z,5.20
2017-07-12T23:55:07.879Z,4.80
2017-07-12T23:57:34.059Z,6.40
